sensor_id;sensor_type;location;lat;lon;timestamp;P1;durP1;ratioP1;P2;durP2;ratioP2
14326;SDS011;7247;53.330;-1.180;2022-09-01T00:04:52;11.77;;;5.17;;
14326;SDS011;7247;53.330;-1.180;2022-09-01T00:07:22;11.43;;;5.30;;
14326;SDS011;7247;53.330;-1.180;2022-09-01T00:09:50;11.00;;;5.37;;
14326;SDS011;7247;53.330;-1.180;2022-09-01T00:12:17;9.83;;;5.17;;
14326;SDS011;7247;53.330;-1.180;2022-09-01T00:14:46;12.17;;;5.50;;
14326;SDS011;7247;53.330;-1.180;2022-09-01T00:17:13;13.23;;;5.10;;
14326;SDS011;7247;53.330;-1.180;2022-09-01T00:19:40;12.63;;;5.87;;
14326;SDS011;7247;53.330;-1.180;2022-09-01T00:27:58;10.60;;;5.27;;
14326;SDS011;7247;53.330;-1.180;2022-09-01T00:36:02;16.40;;;5.90;;
14326;SDS011;7247;53.330;-1.180;2022-09-01T00:38:29;11.47;;;5.97;;
14326;SDS011;7247;53.330;-1.180;2022-09-01T00:40:58;14.30;;;5.47;;
14326;SDS011;7247;53.330;-1.180;2022-09-01T00:43:36;14.57;;;5.77;;
14326;SDS011;7247;53.330;-1.180;2022-09-01T00:46:03;12.37;;;6.40;;
14326;SDS011;7247;53.330;-1.180;2022-09-01T00:48:29;18.23;;;5.80;;
14326;SDS011;7247;53.330;-1.180;2022-09-01T00:53:46;13.67;;;6.03;;
14326;SDS011;7247;53.330;-1.180;2022-09-01T00:56:13;10.00;;;5.50;;
14326;SDS011;7247;53.330;-1.180;2022-09-01T00:58:41;11.07;;;5.93;;
14326;SDS011;7247;53.330;-1.180;2022-09-01T01:01:09;11.03;;;5.90;;
14326;SDS011;7247;53.330;-1.180;2022-09-01T01:03:36;13.87;;;5.90;;
14326;SDS011;7247;53.330;-1.180;2022-09-01T01:06:06;12.40;;;6.07;;
14326;SDS011;7247;53.330;-1.180;2022-09-01T01:08:34;11.30;;;5.60;;
14326;SDS011;7247;53.330;-1.180;2022-09-01T01:11:03;11.63;;;5.67;;
14326;SDS011;7247;53.330;-1.180;2022-09-01T01:13:30;10.07;;;6.23;;
14326;SDS011;7247;53.330;-1.180;2022-09-01T01:16:02;14.13;;;6.83;;
14326;SDS011;7247;53.330;-1.180;2022-09-01T01:18:32;11.03;;;6.20;;
14326;SDS011;7247;53.330;-1.180;2022-09-01T01:21:02;18.97;;;6.80;;
14326;SDS011;7247;53.330;-1.180;2022-09-01T01:23:47;14.53;;;6.77;;
14326;SDS011;7247;53.330;-1.180;2022-09-01T01:26:18;17.30;;;6.90;;
14326;SDS011;7247;53.330;-1.180;2022-09-01T01:28:44;11.93;;;6.37;;
14326;SDS011;7247;53.330;-1.180;2022-09-01T01:34:13;13.90;;;7.30;;
14326;SDS011;7247;53.330;-1.180;2022-09-01T01:36:41;15.07;;;7.20;;
14326;SDS011;7247;53.330;-1.180;2022-09-01T01:39:08;17.50;;;7.37;;
14326;SDS011;7247;53.330;-1.180;2022-09-01T01:41:38;18.50;;;7.77;;
14326;SDS011;7247;53.330;-1.180;2022-09-01T01:44:06;16.73;;;8.50;;
14326;SDS011;7247;53.330;-1.180;2022-09-01T01:46:33;17.57;;;7.53;;
14326;SDS011;7247;53.330;-1.180;2022-09-01T01:49:00;17.50;;;7.60;;
14326;SDS011;7247;53.330;-1.180;2022-09-01T01:54:30;17.80;;;7.47;;
14326;SDS011;7247;53.330;-1.180;2022-09-01T01:56:58;14.30;;;7.10;;
14326;SDS011;7247;53.330;-1.180;2022-09-01T01:59:25;14.07;;;7.37;;
14326;SDS011;7247;53.330;-1.180;2022-09-01T02:01:55;13.40;;;7.83;;
14326;SDS011;7247;53.330;-1.180;2022-09-01T02:04:22;15.60;;;8.00;;
14326;SDS011;7247;53.330;-1.180;2022-09-01T02:06:49;16.80;;;7.43;;
14326;SDS011;7247;53.330;-1.180;2022-09-01T02:09:16;14.80;;;8.43;;
14326;SDS011;7247;53.330;-1.180;2022-09-01T02:14:47;15.90;;;8.93;;
14326;SDS011;7247;53.330;-1.180;2022-09-01T02:17:14;21.97;;;8.73;;
14326;SDS011;7247;53.330;-1.180;2022-09-01T02:19:40;20.53;;;8.50;;
14326;SDS011;7247;53.330;-1.180;2022-09-01T02:24:36;21.27;;;9.63;;
14326;SDS011;7247;53.330;-1.180;2022-09-01T02:27:10;19.00;;;9.20;;
14326;SDS011;7247;53.330;-1.180;2022-09-01T02:29:37;15.07;;;9.33;;
14326;SDS011;7247;53.330;-1.180;2022-09-01T02:32:07;20.03;;;9.80;;
14326;SDS011;7247;53.330;-1.180;2022-09-01T02:34:33;17.43;;;9.67;;
14326;SDS011;7247;53.330;-1.180;2022-09-01T02:37:03;19.97;;;10.37;;
14326;SDS011;7247;53.330;-1.180;2022-09-01T02:39:30;17.53;;;10.07;;
14326;SDS011;7247;53.330;-1.180;2022-09-01T02:45:01;19.77;;;9.30;;
14326;SDS011;7247;53.330;-1.180;2022-09-01T02:47:29;17.83;;;9.70;;
14326;SDS011;7247;53.330;-1.180;2022-09-01T02:49:57;19.63;;;9.40;;
14326;SDS011;7247;53.330;-1.180;2022-09-01T02:52:26;15.50;;;9.63;;
14326;SDS011;7247;53.330;-1.180;2022-09-01T02:54:57;20.60;;;10.00;;
14326;SDS011;7247;53.330;-1.180;2022-09-01T02:57:23;18.50;;;9.73;;
14326;SDS011;7247;53.330;-1.180;2022-09-01T02:59:53;18.30;;;10.03;;
14326;SDS011;7247;53.330;-1.180;2022-09-01T03:02:23;21.87;;;10.40;;
14326;SDS011;7247;53.330;-1.180;2022-09-01T03:04:54;18.27;;;9.80;;
14326;SDS011;7247;53.330;-1.180;2022-09-01T03:07:21;16.60;;;9.30;;
14326;SDS011;7247;53.330;-1.180;2022-09-01T03:09:48;19.83;;;10.30;;
14326;SDS011;7247;53.330;-1.180;2022-09-01T03:12:16;19.27;;;9.27;;
14326;SDS011;7247;53.330;-1.180;2022-09-01T03:14:44;18.53;;;9.90;;
14326;SDS011;7247;53.330;-1.180;2022-09-01T03:17:10;16.73;;;9.13;;
14326;SDS011;7247;53.330;-1.180;2022-09-01T03:19:38;17.53;;;8.90;;
14326;SDS011;7247;53.330;-1.180;2022-09-01T03:22:09;18.20;;;9.97;;
14326;SDS011;7247;53.330;-1.180;2022-09-01T03:24:35;18.47;;;9.70;;
14326;SDS011;7247;53.330;-1.180;2022-09-01T03:27:03;15.50;;;8.87;;
14326;SDS011;7247;53.330;-1.180;2022-09-01T03:29:29;18.73;;;9.10;;
14326;SDS011;7247;53.330;-1.180;2022-09-01T03:31:57;16.70;;;9.63;;
14326;SDS011;7247;53.330;-1.180;2022-09-01T03:34:24;20.77;;;9.87;;
14326;SDS011;7247;53.330;-1.180;2022-09-01T03:36:50;14.47;;;9.90;;
14326;SDS011;7247;53.330;-1.180;2022-09-01T03:39:19;21.77;;;9.60;;
14326;SDS011;7247;53.330;-1.180;2022-09-01T03:41:46;16.73;;;10.50;;
14326;SDS011;7247;53.330;-1.180;2022-09-01T03:44:13;13.70;;;9.77;;
14326;SDS011;7247;53.330;-1.180;2022-09-01T03:46:40;20.43;;;10.60;;
14326;SDS011;7247;53.330;-1.180;2022-09-01T03:49:07;21.60;;;10.50;;
14326;SDS011;7247;53.330;-1.180;2022-09-01T03:54:26;16.87;;;10.20;;
14326;SDS011;7247;53.330;-1.180;2022-09-01T03:56:54;21.43;;;10.80;;
14326;SDS011;7247;53.330;-1.180;2022-09-01T03:59:23;21.97;;;11.27;;
14326;SDS011;7247;53.330;-1.180;2022-09-01T04:01:51;17.00;;;11.53;;
14326;SDS011;7247;53.330;-1.180;2022-09-01T04:04:17;21.70;;;10.77;;
14326;SDS011;7247;53.330;-1.180;2022-09-01T04:06:44;19.77;;;11.30;;
14326;SDS011;7247;53.330;-1.180;2022-09-01T04:09:11;18.13;;;10.40;;
14326;SDS011;7247;53.330;-1.180;2022-09-01T04:14:42;23.43;;;10.67;;
14326;SDS011;7247;53.330;-1.180;2022-09-01T04:17:12;18.73;;;10.43;;
14326;SDS011;7247;53.330;-1.180;2022-09-01T04:22:44;17.57;;;9.93;;
14326;SDS011;7247;53.330;-1.180;2022-09-01T04:25:11;19.33;;;9.63;;
14326;SDS011;7247;53.330;-1.180;2022-09-01T04:27:40;23.23;;;10.63;;
14326;SDS011;7247;53.330;-1.180;2022-09-01T04:30:10;16.97;;;10.80;;
14326;SDS011;7247;53.330;-1.180;2022-09-01T04:32:36;21.63;;;10.43;;
14326;SDS011;7247;53.330;-1.180;2022-09-01T04:35:04;21.57;;;10.27;;
14326;SDS011;7247;53.330;-1.180;2022-09-01T04:37:31;22.73;;;10.37;;
14326;SDS011;7247;53.330;-1.180;2022-09-01T04:40:00;19.17;;;10.80;;
14326;SDS011;7247;53.330;-1.180;2022-09-01T04:42:28;19.17;;;9.80;;
14326;SDS011;7247;53.330;-1.180;2022-09-01T04:44:56;16.90;;;10.43;;
14326;SDS011;7247;53.330;-1.180;2022-09-01T04:47:26;15.43;;;9.63;;
14326;SDS011;7247;53.330;-1.180;2022-09-01T04:49:55;20.30;;;9.67;;
14326;SDS011;7247;53.330;-1.180;2022-09-01T04:52:24;20.20;;;9.83;;
14326;SDS011;7247;53.330;-1.180;2022-09-01T04:54:51;16.77;;;9.53;;
14326;SDS011;7247;53.330;-1.180;2022-09-01T04:57:18;22.33;;;9.50;;
14326;SDS011;7247;53.330;-1.180;2022-09-01T04:59:45;19.30;;;9.33;;
14326;SDS011;7247;53.330;-1.180;2022-09-01T05:02:14;20.30;;;10.43;;
14326;SDS011;7247;53.330;-1.180;2022-09-01T05:04:42;14.63;;;9.27;;
14326;SDS011;7247;53.330;-1.180;2022-09-01T05:07:10;18.23;;;9.70;;
14326;SDS011;7247;53.330;-1.180;2022-09-01T05:09:38;16.17;;;10.43;;
14326;SDS011;7247;53.330;-1.180;2022-09-01T05:12:05;19.60;;;10.53;;
14326;SDS011;7247;53.330;-1.180;2022-09-01T05:14:36;18.87;;;10.67;;
14326;SDS011;7247;53.330;-1.180;2022-09-01T05:17:03;18.00;;;10.97;;
14326;SDS011;7247;53.330;-1.180;2022-09-01T05:19:34;21.80;;;10.97;;
14326;SDS011;7247;53.330;-1.180;2022-09-01T05:25:06;19.57;;;11.80;;
14326;SDS011;7247;53.330;-1.180;2022-09-01T05:30:40;18.60;;;11.30;;
14326;SDS011;7247;53.330;-1.180;2022-09-01T05:33:07;22.17;;;11.63;;
14326;SDS011;7247;53.330;-1.180;2022-09-01T05:35:35;21.53;;;11.33;;
14326;SDS011;7247;53.330;-1.180;2022-09-01T05:38:02;17.53;;;10.87;;
14326;SDS011;7247;53.330;-1.180;2022-09-01T05:40:32;24.17;;;11.77;;
14326;SDS011;7247;53.330;-1.180;2022-09-01T05:43:05;19.90;;;11.50;;
14326;SDS011;7247;53.330;-1.180;2022-09-01T05:45:34;16.77;;;11.30;;
14326;SDS011;7247;53.330;-1.180;2022-09-01T05:48:00;25.83;;;11.83;;
14326;SDS011;7247;53.330;-1.180;2022-09-01T05:50:27;16.50;;;11.10;;
14326;SDS011;7247;53.330;-1.180;2022-09-01T05:52:55;20.73;;;10.97;;
14326;SDS011;7247;53.330;-1.180;2022-09-01T05:55:22;18.37;;;11.30;;
14326;SDS011;7247;53.330;-1.180;2022-09-01T05:57:53;18.60;;;10.77;;
14326;SDS011;7247;53.330;-1.180;2022-09-01T06:00:21;23.97;;;10.77;;
14326;SDS011;7247;53.330;-1.180;2022-09-01T06:02:47;21.93;;;11.60;;
14326;SDS011;7247;53.330;-1.180;2022-09-01T06:05:20;19.90;;;11.10;;
14326;SDS011;7247;53.330;-1.180;2022-09-01T06:07:47;21.57;;;11.70;;
14326;SDS011;7247;53.330;-1.180;2022-09-01T06:13:19;25.50;;;10.97;;
14326;SDS011;7247;53.330;-1.180;2022-09-01T06:15:47;17.27;;;10.23;;
14326;SDS011;7247;53.330;-1.180;2022-09-01T06:18:14;22.77;;;9.80;;
14326;SDS011;7247;53.330;-1.180;2022-09-01T06:23:45;13.03;;;9.17;;
14326;SDS011;7247;53.330;-1.180;2022-09-01T06:29:19;17.20;;;9.87;;
14326;SDS011;7247;53.330;-1.180;2022-09-01T06:31:46;16.63;;;9.50;;
14326;SDS011;7247;53.330;-1.180;2022-09-01T06:34:15;14.53;;;9.07;;
14326;SDS011;7247;53.330;-1.180;2022-09-01T06:36:44;13.63;;;8.53;;
14326;SDS011;7247;53.330;-1.180;2022-09-01T06:39:15;13.60;;;8.73;;
14326;SDS011;7247;53.330;-1.180;2022-09-01T06:44:32;13.60;;;8.23;;
14326;SDS011;7247;53.330;-1.180;2022-09-01T06:46:58;14.80;;;8.30;;
14326;SDS011;7247;53.330;-1.180;2022-09-01T06:49:25;13.40;;;7.87;;
14326;SDS011;7247;53.330;-1.180;2022-09-01T06:51:58;9.27;;;7.53;;
14326;SDS011;7247;53.330;-1.180;2022-09-01T06:54:24;14.97;;;7.90;;
14326;SDS011;7247;53.330;-1.180;2022-09-01T06:56:51;13.40;;;6.83;;
14326;SDS011;7247;53.330;-1.180;2022-09-01T06:59:18;10.03;;;6.43;;
14326;SDS011;7247;53.330;-1.180;2022-09-01T07:10:26;10.77;;;5.27;;
14326;SDS011;7247;53.330;-1.180;2022-09-01T07:12:54;13.83;;;6.20;;
14326;SDS011;7247;53.330;-1.180;2022-09-01T07:15:21;8.87;;;5.47;;
14326;SDS011;7247;53.330;-1.180;2022-09-01T07:17:52;11.97;;;5.87;;
14326;SDS011;7247;53.330;-1.180;2022-09-01T07:23:06;10.77;;;5.37;;
14326;SDS011;7247;53.330;-1.180;2022-09-01T07:25:36;10.83;;;5.30;;
14326;SDS011;7247;53.330;-1.180;2022-09-01T07:28:03;14.53;;;5.33;;
14326;SDS011;7247;53.330;-1.180;2022-09-01T07:30:30;11.50;;;5.10;;
14326;SDS011;7247;53.330;-1.180;2022-09-01T07:32:57;9.60;;;4.83;;
14326;SDS011;7247;53.330;-1.180;2022-09-01T07:35:24;8.03;;;3.70;;
14326;SDS011;7247;53.330;-1.180;2022-09-01T07:37:51;6.90;;;3.33;;
14326;SDS011;7247;53.330;-1.180;2022-09-01T07:40:20;6.53;;;3.00;;
14326;SDS011;7247;53.330;-1.180;2022-09-01T07:42:52;9.83;;;2.93;;
14326;SDS011;7247;53.330;-1.180;2022-09-01T07:45:19;8.43;;;3.03;;
14326;SDS011;7247;53.330;-1.180;2022-09-01T07:47:49;7.03;;;2.90;;
14326;SDS011;7247;53.330;-1.180;2022-09-01T07:50:18;7.57;;;2.97;;
14326;SDS011;7247;53.330;-1.180;2022-09-01T07:52:44;5.40;;;2.87;;
14326;SDS011;7247;53.330;-1.180;2022-09-01T07:55:14;5.73;;;2.60;;
14326;SDS011;7247;53.330;-1.180;2022-09-01T07:57:41;6.60;;;2.57;;
14326;SDS011;7247;53.330;-1.180;2022-09-01T08:00:13;10.13;;;2.40;;
14326;SDS011;7247;53.330;-1.180;2022-09-01T08:02:40;7.90;;;2.20;;
14326;SDS011;7247;53.330;-1.180;2022-09-01T08:05:08;4.37;;;2.10;;
14326;SDS011;7247;53.330;-1.180;2022-09-01T08:07:35;10.63;;;2.40;;
14326;SDS011;7247;53.330;-1.180;2022-09-01T08:10:02;4.90;;;2.17;;
14326;SDS011;7247;53.330;-1.180;2022-09-01T08:12:29;6.57;;;1.90;;
14326;SDS011;7247;53.330;-1.180;2022-09-01T08:14:56;5.53;;;2.00;;
14326;SDS011;7247;53.330;-1.180;2022-09-01T08:17:24;4.40;;;2.20;;
14326;SDS011;7247;53.330;-1.180;2022-09-01T08:19:51;4.83;;;1.90;;
14326;SDS011;7247;53.330;-1.180;2022-09-01T08:22:18;6.47;;;2.30;;
14326;SDS011;7247;53.330;-1.180;2022-09-01T08:24:48;8.17;;;2.20;;
14326;SDS011;7247;53.330;-1.180;2022-09-01T08:27:14;8.20;;;2.27;;
14326;SDS011;7247;53.330;-1.180;2022-09-01T08:29:41;7.33;;;1.80;;
14326;SDS011;7247;53.330;-1.180;2022-09-01T08:34:55;4.93;;;1.30;;
14326;SDS011;7247;53.330;-1.180;2022-09-01T08:37:22;5.97;;;1.30;;
14326;SDS011;7247;53.330;-1.180;2022-09-01T08:39:49;5.70;;;1.40;;
14326;SDS011;7247;53.330;-1.180;2022-09-01T08:42:17;3.07;;;1.23;;
14326;SDS011;7247;53.330;-1.180;2022-09-01T08:44:50;5.67;;;1.60;;
14326;SDS011;7247;53.330;-1.180;2022-09-01T08:47:19;6.57;;;1.60;;
14326;SDS011;7247;53.330;-1.180;2022-09-01T08:49:45;3.33;;;1.40;;
14326;SDS011;7247;53.330;-1.180;2022-09-01T08:52:18;4.57;;;1.37;;
14326;SDS011;7247;53.330;-1.180;2022-09-01T08:54:48;5.20;;;1.57;;
14326;SDS011;7247;53.330;-1.180;2022-09-01T08:57:16;6.00;;;1.50;;
14326;SDS011;7247;53.330;-1.180;2022-09-01T08:59:44;5.70;;;1.80;;
14326;SDS011;7247;53.330;-1.180;2022-09-01T09:02:17;5.63;;;1.60;;
14326;SDS011;7247;53.330;-1.180;2022-09-01T09:04:49;4.03;;;1.60;;
14326;SDS011;7247;53.330;-1.180;2022-09-01T09:07:21;3.40;;;1.50;;
14326;SDS011;7247;53.330;-1.180;2022-09-01T09:09:52;6.53;;;1.43;;
14326;SDS011;7247;53.330;-1.180;2022-09-01T09:12:32;3.83;;;1.50;;
14326;SDS011;7247;53.330;-1.180;2022-09-01T09:15:03;5.37;;;1.40;;
14326;SDS011;7247;53.330;-1.180;2022-09-01T09:17:32;5.27;;;1.50;;
14326;SDS011;7247;53.330;-1.180;2022-09-01T09:20:00;4.10;;;1.40;;
14326;SDS011;7247;53.330;-1.180;2022-09-01T09:22:29;2.03;;;1.07;;
14326;SDS011;7247;53.330;-1.180;2022-09-01T09:24:57;5.73;;;1.67;;
14326;SDS011;7247;53.330;-1.180;2022-09-01T09:27:25;2.73;;;1.37;;
14326;SDS011;7247;53.330;-1.180;2022-09-01T09:29:53;4.23;;;1.50;;
14326;SDS011;7247;53.330;-1.180;2022-09-01T09:32:21;10.57;;;2.63;;
14326;SDS011;7247;53.330;-1.180;2022-09-01T09:34:48;4.77;;;1.40;;
14326;SDS011;7247;53.330;-1.180;2022-09-01T09:37:24;6.73;;;1.57;;
14326;SDS011;7247;53.330;-1.180;2022-09-01T09:40:03;6.10;;;1.80;;
14326;SDS011;7247;53.330;-1.180;2022-09-01T09:42:31;11.00;;;2.30;;
14326;SDS011;7247;53.330;-1.180;2022-09-01T09:44:58;7.57;;;1.83;;
14326;SDS011;7247;53.330;-1.180;2022-09-01T09:47:35;4.33;;;1.50;;
14326;SDS011;7247;53.330;-1.180;2022-09-01T09:50:13;6.27;;;1.57;;
14326;SDS011;7247;53.330;-1.180;2022-09-01T09:52:41;7.07;;;1.80;;
14326;SDS011;7247;53.330;-1.180;2022-09-01T09:55:19;5.27;;;1.40;;
14326;SDS011;7247;53.330;-1.180;2022-09-01T09:57:46;3.53;;;1.43;;
14326;SDS011;7247;53.330;-1.180;2022-09-01T10:00:22;5.87;;;1.50;;
14326;SDS011;7247;53.330;-1.180;2022-09-01T10:02:53;7.40;;;1.60;;
14326;SDS011;7247;53.330;-1.180;2022-09-01T10:05:23;4.13;;;1.30;;
14326;SDS011;7247;53.330;-1.180;2022-09-01T10:07:50;4.83;;;1.40;;
14326;SDS011;7247;53.330;-1.180;2022-09-01T10:10:26;4.97;;;1.70;;
14326;SDS011;7247;53.330;-1.180;2022-09-01T10:12:53;3.57;;;1.60;;
14326;SDS011;7247;53.330;-1.180;2022-09-01T10:15:22;3.67;;;1.40;;
14326;SDS011;7247;53.330;-1.180;2022-09-01T10:20:48;5.97;;;1.40;;
14326;SDS011;7247;53.330;-1.180;2022-09-01T10:23:17;8.70;;;1.80;;
14326;SDS011;7247;53.330;-1.180;2022-09-01T10:25:46;6.23;;;1.50;;
14326;SDS011;7247;53.330;-1.180;2022-09-01T10:28:15;4.30;;;1.40;;
14326;SDS011;7247;53.330;-1.180;2022-09-01T10:36:16;29.10;;;5.33;;
14326;SDS011;7247;53.330;-1.180;2022-09-01T10:38:43;13.67;;;2.50;;
14326;SDS011;7247;53.330;-1.180;2022-09-01T10:43:56;9.03;;;1.77;;
14326;SDS011;7247;53.330;-1.180;2022-09-01T10:51:57;3.28;;;1.50;;
14326;SDS011;7247;53.330;-1.180;2022-09-01T10:57:09;2.40;;;1.30;;
14326;SDS011;7247;53.330;-1.180;2022-09-01T10:59:38;6.10;;;1.60;;
14326;SDS011;7247;53.330;-1.180;2022-09-01T11:05:12;2.58;;;1.40;;
14326;SDS011;7247;53.330;-1.180;2022-09-01T11:07:39;2.97;;;1.25;;
14326;SDS011;7247;53.330;-1.180;2022-09-01T11:10:09;4.60;;;1.50;;
14326;SDS011;7247;53.330;-1.180;2022-09-01T11:12:43;2.85;;;1.40;;
14326;SDS011;7247;53.330;-1.180;2022-09-01T11:17:58;4.45;;;1.52;;
14326;SDS011;7247;53.330;-1.180;2022-09-01T11:20:26;5.38;;;1.80;;
14326;SDS011;7247;53.330;-1.180;2022-09-01T11:22:58;4.53;;;1.40;;
14326;SDS011;7247;53.330;-1.180;2022-09-01T11:25:34;42.58;;;6.22;;
14326;SDS011;7247;53.330;-1.180;2022-09-01T11:28:02;20.35;;;3.70;;
14326;SDS011;7247;53.330;-1.180;2022-09-01T11:36:04;5.80;;;1.50;;
14326;SDS011;7247;53.330;-1.180;2022-09-01T11:38:33;2.25;;;1.40;;
14326;SDS011;7247;53.330;-1.180;2022-09-01T11:44:10;3.63;;;1.80;;
14326;SDS011;7247;53.330;-1.180;2022-09-01T11:46:38;4.63;;;1.52;;
14326;SDS011;7247;53.330;-1.180;2022-09-01T11:49:14;4.13;;;1.58;;
14326;SDS011;7247;53.330;-1.180;2022-09-01T11:51:47;8.10;;;2.35;;
14326;SDS011;7247;53.330;-1.180;2022-09-01T11:54:13;5.78;;;2.05;;
14326;SDS011;7247;53.330;-1.180;2022-09-01T11:56:41;3.05;;;1.42;;
14326;SDS011;7247;53.330;-1.180;2022-09-01T11:59:07;4.82;;;1.40;;
14326;SDS011;7247;53.330;-1.180;2022-09-01T12:01:36;3.67;;;1.40;;
14326;SDS011;7247;53.330;-1.180;2022-09-01T12:04:20;5.00;;;1.77;;
14326;SDS011;7247;53.330;-1.180;2022-09-01T12:06:52;9.73;;;1.70;;
14326;SDS011;7247;53.330;-1.180;2022-09-01T12:09:20;5.43;;;2.20;;
14326;SDS011;7247;53.330;-1.180;2022-09-01T12:14:54;4.10;;;1.70;;
14326;SDS011;7247;53.330;-1.180;2022-09-01T12:20:23;3.67;;;1.58;;
14326;SDS011;7247;53.330;-1.180;2022-09-01T12:22:52;6.20;;;2.23;;
14326;SDS011;7247;53.330;-1.180;2022-09-01T12:25:20;3.80;;;1.50;;
14326;SDS011;7247;53.330;-1.180;2022-09-01T12:27:48;5.07;;;1.77;;
14326;SDS011;7247;53.330;-1.180;2022-09-01T12:33:18;1.88;;;1.35;;
14326;SDS011;7247;53.330;-1.180;2022-09-01T12:35:50;2.60;;;1.60;;
14326;SDS011;7247;53.330;-1.180;2022-09-01T12:38:25;6.47;;;1.87;;
14326;SDS011;7247;53.330;-1.180;2022-09-01T12:43:41;5.65;;;1.40;;
14326;SDS011;7247;53.330;-1.180;2022-09-01T12:46:08;5.35;;;1.60;;
14326;SDS011;7247;53.330;-1.180;2022-09-01T12:48:35;5.25;;;1.63;;
14326;SDS011;7247;53.330;-1.180;2022-09-01T12:53:52;3.97;;;1.40;;
14326;SDS011;7247;53.330;-1.180;2022-09-01T12:56:22;2.83;;;1.30;;
14326;SDS011;7247;53.330;-1.180;2022-09-01T12:58:50;5.03;;;1.48;;
14326;SDS011;7247;53.330;-1.180;2022-09-01T13:04:05;4.70;;;1.42;;
14326;SDS011;7247;53.330;-1.180;2022-09-01T13:06:32;4.25;;;1.50;;
14326;SDS011;7247;53.330;-1.180;2022-09-01T13:09:00;3.63;;;1.42;;
14326;SDS011;7247;53.330;-1.180;2022-09-01T13:11:27;4.20;;;1.58;;
14326;SDS011;7247;53.330;-1.180;2022-09-01T13:13:53;3.72;;;1.60;;
14326;SDS011;7247;53.330;-1.180;2022-09-01T13:16:21;5.10;;;1.60;;
14326;SDS011;7247;53.330;-1.180;2022-09-01T13:18:47;5.30;;;1.70;;
14326;SDS011;7247;53.330;-1.180;2022-09-01T13:27:21;3.55;;;1.90;;
14326;SDS011;7247;53.330;-1.180;2022-09-01T13:29:47;3.60;;;1.65;;
14326;SDS011;7247;53.330;-1.180;2022-09-01T13:32:16;3.90;;;1.50;;
14326;SDS011;7247;53.330;-1.180;2022-09-01T13:34:44;5.28;;;1.70;;
14326;SDS011;7247;53.330;-1.180;2022-09-01T13:37:10;2.90;;;1.50;;
14326;SDS011;7247;53.330;-1.180;2022-09-01T13:39:37;2.92;;;1.45;;
14326;SDS011;7247;53.330;-1.180;2022-09-01T13:45:08;7.13;;;1.83;;
14326;SDS011;7247;53.330;-1.180;2022-09-01T13:47:37;3.15;;;1.50;;
14326;SDS011;7247;53.330;-1.180;2022-09-01T13:50:04;6.72;;;1.70;;
14326;SDS011;7247;53.330;-1.180;2022-09-01T13:52:30;7.38;;;2.00;;
14326;SDS011;7247;53.330;-1.180;2022-09-01T13:54:57;17.77;;;4.07;;
14326;SDS011;7247;53.330;-1.180;2022-09-01T13:57:24;16.35;;;3.28;;
14326;SDS011;7247;53.330;-1.180;2022-09-01T13:59:51;6.55;;;2.05;;
14326;SDS011;7247;53.330;-1.180;2022-09-01T14:02:20;6.55;;;2.08;;
14326;SDS011;7247;53.330;-1.180;2022-09-01T14:04:46;31.48;;;5.30;;
14326;SDS011;7247;53.330;-1.180;2022-09-01T14:07:13;12.88;;;3.08;;
14326;SDS011;7247;53.330;-1.180;2022-09-01T14:09:40;6.03;;;2.00;;
14326;SDS011;7247;53.330;-1.180;2022-09-01T14:12:08;35.60;;;6.38;;
14326;SDS011;7247;53.330;-1.180;2022-09-01T14:14:34;4.25;;;1.70;;
14326;SDS011;7247;53.330;-1.180;2022-09-01T14:17:01;5.47;;;1.58;;
14326;SDS011;7247;53.330;-1.180;2022-09-01T14:19:29;2.80;;;1.50;;
14326;SDS011;7247;53.330;-1.180;2022-09-01T14:21:57;4.35;;;1.63;;
14326;SDS011;7247;53.330;-1.180;2022-09-01T14:24:24;4.32;;;1.48;;
14326;SDS011;7247;53.330;-1.180;2022-09-01T14:26:50;5.43;;;2.05;;
14326;SDS011;7247;53.330;-1.180;2022-09-01T14:29:17;4.53;;;2.03;;
14326;SDS011;7247;53.330;-1.180;2022-09-01T14:34:48;3.85;;;1.60;;
14326;SDS011;7247;53.330;-1.180;2022-09-01T14:37:15;4.93;;;1.60;;
14326;SDS011;7247;53.330;-1.180;2022-09-01T14:39:42;3.58;;;1.50;;
14326;SDS011;7247;53.330;-1.180;2022-09-01T14:44:45;3.58;;;1.55;;
14326;SDS011;7247;53.330;-1.180;2022-09-01T14:47:12;6.75;;;1.85;;
14326;SDS011;7247;53.330;-1.180;2022-09-01T14:49:39;8.82;;;1.90;;
14326;SDS011;7247;53.330;-1.180;2022-09-01T14:52:08;5.20;;;1.70;;
14326;SDS011;7247;53.330;-1.180;2022-09-01T14:54:36;4.88;;;1.60;;
14326;SDS011;7247;53.330;-1.180;2022-09-01T14:57:04;7.72;;;1.67;;
14326;SDS011;7247;53.330;-1.180;2022-09-01T14:59:30;6.22;;;1.85;;
14326;SDS011;7247;53.330;-1.180;2022-09-01T15:05:00;6.15;;;1.65;;
14326;SDS011;7247;53.330;-1.180;2022-09-01T15:07:30;3.17;;;1.75;;
14326;SDS011;7247;53.330;-1.180;2022-09-01T15:09:57;4.65;;;1.92;;
14326;SDS011;7247;53.330;-1.180;2022-09-01T15:12:24;5.40;;;1.67;;
14326;SDS011;7247;53.330;-1.180;2022-09-01T15:14:54;4.63;;;1.70;;
14326;SDS011;7247;53.330;-1.180;2022-09-01T15:17:21;4.55;;;1.65;;
14326;SDS011;7247;53.330;-1.180;2022-09-01T15:19:47;6.57;;;1.63;;
14326;SDS011;7247;53.330;-1.180;2022-09-01T15:28:04;5.28;;;1.60;;
14326;SDS011;7247;53.330;-1.180;2022-09-01T15:33:16;5.78;;;1.83;;
14326;SDS011;7247;53.330;-1.180;2022-09-01T15:35:43;3.20;;;1.40;;
14326;SDS011;7247;53.330;-1.180;2022-09-01T15:38:10;5.13;;;1.60;;
14326;SDS011;7247;53.330;-1.180;2022-09-01T15:43:40;3.47;;;1.60;;
14326;SDS011;7247;53.330;-1.180;2022-09-01T15:46:07;4.23;;;1.50;;
14326;SDS011;7247;53.330;-1.180;2022-09-01T15:48:34;4.27;;;2.00;;
14326;SDS011;7247;53.330;-1.180;2022-09-01T15:51:07;5.22;;;1.77;;
14326;SDS011;7247;53.330;-1.180;2022-09-01T15:53:42;6.30;;;1.65;;
14326;SDS011;7247;53.330;-1.180;2022-09-01T15:56:08;3.25;;;1.48;;
14326;SDS011;7247;53.330;-1.180;2022-09-01T15:58:35;6.85;;;1.50;;
14326;SDS011;7247;53.330;-1.180;2022-09-01T16:07:08;7.83;;;1.80;;
14326;SDS011;7247;53.330;-1.180;2022-09-01T16:12:39;3.90;;;1.50;;
14326;SDS011;7247;53.330;-1.180;2022-09-01T16:15:08;5.67;;;1.60;;
14326;SDS011;7247;53.330;-1.180;2022-09-01T16:17:39;2.25;;;1.50;;
14326;SDS011;7247;53.330;-1.180;2022-09-01T16:25:59;9.43;;;1.90;;
14326;SDS011;7247;53.330;-1.180;2022-09-01T16:28:26;8.20;;;1.83;;
14326;SDS011;7247;53.330;-1.180;2022-09-01T16:33:38;5.77;;;1.93;;
14326;SDS011;7247;53.330;-1.180;2022-09-01T16:36:09;6.10;;;1.80;;
14326;SDS011;7247;53.330;-1.180;2022-09-01T16:38:40;4.30;;;1.90;;
14326;SDS011;7247;53.330;-1.180;2022-09-01T16:41:13;8.60;;;2.30;;
14326;SDS011;7247;53.330;-1.180;2022-09-01T16:43:44;6.77;;;1.80;;
14326;SDS011;7247;53.330;-1.180;2022-09-01T16:46:14;6.10;;;1.70;;
14326;SDS011;7247;53.330;-1.180;2022-09-01T16:48:44;4.20;;;1.60;;
14326;SDS011;7247;53.330;-1.180;2022-09-01T16:51:16;3.30;;;1.75;;
14326;SDS011;7247;53.330;-1.180;2022-09-01T16:53:49;6.57;;;2.00;;
14326;SDS011;7247;53.330;-1.180;2022-09-01T16:56:22;12.43;;;1.98;;
14326;SDS011;7247;53.330;-1.180;2022-09-01T16:58:52;4.93;;;2.10;;
14326;SDS011;7247;53.330;-1.180;2022-09-01T17:01:23;6.82;;;1.80;;
14326;SDS011;7247;53.330;-1.180;2022-09-01T17:03:55;7.72;;;1.70;;
14326;SDS011;7247;53.330;-1.180;2022-09-01T17:06:28;4.63;;;2.10;;
14326;SDS011;7247;53.330;-1.180;2022-09-01T17:08:58;7.85;;;1.98;;
14326;SDS011;7247;53.330;-1.180;2022-09-01T17:11:31;4.35;;;1.75;;
14326;SDS011;7247;53.330;-1.180;2022-09-01T17:14:01;3.55;;;1.70;;
14326;SDS011;7247;53.330;-1.180;2022-09-01T17:16:28;5.78;;;1.90;;
14326;SDS011;7247;53.330;-1.180;2022-09-01T17:19:02;4.72;;;1.70;;
14326;SDS011;7247;53.330;-1.180;2022-09-01T17:24:25;6.70;;;1.80;;
14326;SDS011;7247;53.330;-1.180;2022-09-01T17:26:58;4.40;;;1.70;;
14326;SDS011;7247;53.330;-1.180;2022-09-01T17:29:37;4.22;;;1.77;;
14326;SDS011;7247;53.330;-1.180;2022-09-01T17:38:15;5.23;;;1.87;;
14326;SDS011;7247;53.330;-1.180;2022-09-01T17:46:38;5.37;;;1.80;;
14326;SDS011;7247;53.330;-1.180;2022-09-01T17:49:15;5.57;;;2.00;;
14326;SDS011;7247;53.330;-1.180;2022-09-01T17:51:49;7.32;;;1.90;;
14326;SDS011;7247;53.330;-1.180;2022-09-01T17:54:21;5.28;;;1.63;;
14326;SDS011;7247;53.330;-1.180;2022-09-01T17:56:51;6.03;;;1.88;;